Time;durP1;ratioP1;P1;durP2;ratioP2;P2;SDS_P1;SDS_P2;PMS_P1;PMS_P2;Temp;Humidity;BMP_temperature;BMP_pressure;BME280_temperature;BME280_humidity;BME280_pressure;Samples;Min_cycle;Max_cycle;Signal;HPM_P1;HPM_P2
2022/06/11 00:00:04;;;;;;;2.73;2.27;;;;;;;13.97;74.44;96234.06;4912743;29;20250;-81
2022/06/11 00:02:29;;;;;;;5.57;2.37;;;;;;;13.98;74.18;96238.31;4927532;29;20178;-82
2022/06/11 00:04:54;;;;;;;4.33;2.10;;;;;;;13.96;74.39;96233.25;4927378;29;20232;-82
2022/06/11 00:07:22;;;;;;;4.73;2.00;;;;;;;13.97;74.22;96234.06;4927916;28;20420;-82
2022/06/11 00:09:48;;;;;;;3.33;2.13;;;;;;;13.91;74.62;96232.88;4913198;29;20204;-82
2022/06/11 00:12:14;;;;;;;3.70;2.20;;;;;;;13.93;74.25;96238.75;4911015;29;20324;-82
2022/06/11 00:14:41;;;;;;;5.43;2.50;;;;;;;13.93;74.17;96237.94;4910707;29;20210;-82
2022/06/11 00:17:08;;;;;;;2.90;2.20;;;;;;;13.95;73.92;96236.00;4927140;29;20209;-82
2022/06/11 00:19:34;;;;;;;3.83;2.10;;;;;;;13.95;73.72;96239.41;4911339;29;20225;-82
2022/06/11 00:22:00;;;;;;;4.00;2.23;;;;;;;14.02;72.71;96229.19;4927115;29;20233;-82
2022/06/11 00:24:26;;;;;;;2.57;1.80;;;;;;;14.02;72.66;96240.47;4925302;29;20213;-82
2022/06/11 00:26:54;;;;;;;5.03;2.13;;;;;;;14.01;73.00;96232.78;4910922;29;20591;-83
2022/06/11 00:29:20;;;;;;;4.63;2.50;;;;;;;14.01;73.08;96240.63;4910098;29;20206;-82
2022/06/11 00:31:46;;;;;;;3.27;1.80;;;;;;;14.00;73.16;96238.97;4907929;29;20635;-82
2022/06/11 00:34:12;;;;;;;4.47;2.10;;;;;;;14.02;72.88;96231.81;4907452;29;20279;-82
2022/06/11 00:36:37;;;;;;;5.67;2.40;;;;;;;13.99;73.04;96240.78;4907206;29;20202;-82
2022/06/11 00:39:05;;;;;;;5.17;2.17;;;;;;;13.98;73.05;96231.31;4906839;29;20277;-82
2022/06/11 00:41:32;;;;;;;2.70;1.90;;;;;;;13.97;72.96;96234.06;4907673;29;20194;-82
2022/06/11 00:43:57;;;;;;;3.47;2.30;;;;;;;13.96;73.06;96229.78;4906206;29;20242;-82
2022/06/11 00:46:42;;;;;;;3.57;2.30;;;;;;;13.94;73.13;96231.75;4906780;29;20873;-82
2022/06/11 00:49:35;;;;;;;2.67;2.00;;;;;;;13.91;73.21;96234.66;4907410;29;20199;-82
2022/06/11 00:52:15;;;;;;;3.70;2.30;;;;;;;13.82;73.67;96225.94;4906947;29;20257;-82
2022/06/11 00:54:54;;;;;;;2.57;2.00;;;;;;;13.84;73.48;96226.59;4906652;29;20179;-82
2022/06/11 00:57:20;;;;;;;6.70;2.70;;;;;;;13.78;73.46;96224.59;4906952;29;20198;-83
2022/06/11 00:59:51;;;;;;;4.60;1.90;;;;;;;13.75;73.37;96220.50;4907372;29;20179;-82
2022/06/11 01:02:17;;;;;;;3.97;2.30;;;;;;;13.73;73.02;96225.06;4905852;29;20622;-82
2022/06/11 01:04:49;;;;;;;3.90;2.07;;;;;;;13.73;73.44;96219.03;4890679;29;20262;-82
2022/06/11 01:07:34;;;;;;;5.57;2.67;;;;;;;13.70;73.96;96220.16;4892288;29;20285;-82
2022/06/11 01:10:37;;;;;;;8.50;2.80;;;;;;;13.73;73.63;96219.84;4923559;29;20203;-82
2022/06/11 01:13:09;;;;;;;7.30;2.10;;;;;;;13.70;73.90;96221.94;4922031;29;20288;-82
2022/06/11 01:15:39;;;;;;;6.50;2.63;;;;;;;13.75;73.44;96220.50;4906927;29;20191;-82
2022/06/11 01:18:16;;;;;;;4.20;2.20;;;;;;;13.79;73.32;96231.47;4908514;29;20247;-82
2022/06/11 01:21:12;;;;;;;2.80;2.13;;;;;;;13.82;73.29;96220.72;4915860;29;20197;-83
2022/06/11 01:23:46;;;;;;;3.47;2.30;;;;;;;13.78;73.29;96222.84;4853198;29;20232;-82
2022/06/11 01:26:40;;;;;;;4.30;2.27;;;;;;;13.81;73.30;96222.53;4851054;29;20197;-83
2022/06/11 01:29:10;;;;;;;6.50;2.20;;;;;;;13.76;73.61;96218.72;4835541;29;20686;-82
2022/06/11 01:31:49;;;;;;;2.90;2.03;;;;;;;13.73;73.40;96216.41;4850788;29;20189;-82
2022/06/11 01:34:43;;;;;;;7.93;2.50;;;;;;;13.74;73.00;96220.66;4834752;29;20296;-82
2022/06/11 01:37:12;;;;;;;3.33;1.90;;;;;;;13.73;73.25;96205.97;4833110;29;20255;-82
2022/06/11 01:39:51;;;;;;;3.93;3.10;;;;;;;13.71;73.25;96213.97;4833436;29;20240;-82
2022/06/11 01:42:21;;;;;;;2.37;1.83;;;;;;;13.75;73.11;96212.66;4832519;29;20201;-81
2022/06/11 01:44:59;;;;;;;3.20;2.10;;;;;;;13.77;72.76;96204.69;4833398;29;20196;-81
2022/06/11 01:47:24;;;;;;;3.47;2.10;;;;;;;13.80;73.02;96210.44;4832306;29;20189;-82
2022/06/11 01:49:50;;;;;;;2.60;1.80;;;;;;;13.91;72.62;96206.75;4832305;29;20216;-82
2022/06/11 01:52:24;;;;;;;5.83;2.37;;;;;;;14.01;72.13;96204.06;4831981;29;20738;-82
2022/06/11 01:55:01;;;;;;;2.53;2.07;;;;;;;14.02;72.20;96205.69;4846675;29;20197;-82
2022/06/11 01:57:45;;;;;;;5.80;2.37;;;;;;;14.06;71.78;96207.84;4847378;29;20231;-81
2022/06/11 02:00:13;;;;;;;4.87;2.53;;;;;;;13.97;72.17;96206.16;4870690;29;20195;-81
2022/06/11 02:03:02;;;;;;;2.53;1.97;;;;;;;13.97;72.27;96197.50;4923402;29;20554;-82
2022/06/11 02:05:58;;;;;;;4.03;2.50;;;;;;;13.95;72.23;96205.47;4921541;29;20188;-82
2022/06/11 02:08:32;;;;;;;4.90;2.37;;;;;;;13.95;72.29;96202.03;4922222;29;20269;-83
2022/06/11 02:11:10;;;;;;;2.93;2.17;;;;;;;13.94;72.49;96213.47;4921817;29;20220;-82
2022/06/11 02:13:41;;;;;;;2.53;2.10;;;;;;;13.85;72.59;96200.34;4905182;29;20521;-82
2022/06/11 02:16:27;;;;;;;3.93;2.23;;;;;;;13.80;73.22;96199.19;4920755;29;20183;-83
2022/06/11 02:18:54;;;;;;;5.07;2.20;;;;;;;13.82;73.19;96208.50;4916301;29;20238;-82
2022/06/11 02:21:24;;;;;;;3.17;2.00;;;;;;;13.77;73.10;96205.50;4914702;29;20287;-81
2022/06/11 02:24:07;;;;;;;4.10;2.70;;;;;;;13.74;73.31;96208.44;4915848;29;20210;-84
2022/06/11 02:26:35;;;;;;;4.97;2.30;;;;;;;13.74;73.32;96199.78;4914722;29;20189;-83
2022/06/11 02:29:01;;;;;;;2.93;2.30;;;;;;;13.73;73.30;96205.97;4929110;29;20684;-84
2022/06/11 02:31:34;;;;;;;3.40;2.30;;;;;;;13.80;72.74;96201.78;4911398;29;20238;-83
2022/06/11 02:34:05;;;;;;;3.57;2.20;;;;;;;13.80;73.10;96207.00;4922500;29;20195;-82
2022/06/11 02:36:33;;;;;;;3.50;2.20;;;;;;;13.75;73.13;96204.84;4906785;29;20710;-82
2022/06/11 02:39:00;;;;;;;2.23;1.60;;;;;;;13.80;72.77;96207.00;4920978;29;20237;-82
2022/06/11 02:41:32;;;;;;;3.93;2.00;;;;;;;13.81;72.71;96204.25;4920727;29;20202;-82
2022/06/11 02:43:58;;;;;;;5.03;2.40;;;;;;;13.81;72.86;96209.47;4920120;29;20205;-82
2022/06/11 02:46:41;;;;;;;4.93;2.43;;;;;;;13.80;72.80;96205.22;4920751;29;20541;-82
2022/06/11 02:49:08;;;;;;;1.93;1.70;;;;;;;13.87;72.40;96206.25;4921322;29;20230;-81
2022/06/11 02:51:34;;;;;;;3.83;2.10;;;;;;;13.86;72.52;96211.59;4921995;29;20201;-82
2022/06/11 02:54:00;;;;;;;6.30;2.27;;;;;;;13.73;73.13;96206.78;4922073;29;20190;-83
2022/06/11 02:56:26;;;;;;;5.20;2.50;;;;;;;13.82;72.77;96207.69;4903288;29;20281;-82
2022/06/11 02:58:51;;;;;;;6.33;2.43;;;;;;;13.86;72.52;96206.38;4903218;29;20714;-82
2022/06/11 03:01:19;;;;;;;3.00;2.17;;;;;;;13.85;72.71;96210.78;4918171;29;20278;-83
2022/06/11 03:03:44;;;;;;;4.37;2.00;;;;;;;13.89;72.48;96213.94;4918662;29;20227;-83
2022/06/11 03:06:11;;;;;;;4.83;2.63;;;;;;;13.99;72.29;96209.44;4918612;29;20216;-82
2022/06/11 03:08:37;;;;;;;3.50;1.90;;;;;;;13.98;71.96;96206.97;4918577;29;20198;-83
2022/06/11 03:11:02;;;;;;;3.33;2.10;;;;;;;14.02;72.05;96208.31;4904291;29;20183;-82
2022/06/11 03:13:30;;;;;;;5.57;2.43;;;;;;;14.08;71.64;96216.34;4920151;29;20186;-82
2022/06/11 03:15:55;;;;;;;2.73;2.17;;;;;;;14.09;71.57;96218.00;4919120;29;20183;-82
2022/06/11 03:18:22;;;;;;;6.37;2.30;;;;;;;14.06;71.34;96213.09;4920025;29;20213;-83
2022/06/11 03:20:50;;;;;;;6.73;2.90;;;;;;;14.14;71.36;96220.16;4920467;29;20246;-83
2022/06/11 03:23:16;;;;;;;7.00;2.30;;;;;;;14.01;71.75;96215.31;4905121;29;20215;-83
2022/06/11 03:25:42;;;;;;;3.67;2.10;;;;;;;14.05;71.73;96221.91;4918582;29;20190;-83
2022/06/11 03:28:14;;;;;;;3.03;1.83;;;;;;;14.06;71.78;96218.31;4920563;29;20737;-80
2022/06/11 03:30:39;;;;;;;3.37;2.37;;;;;;;14.04;72.15;96219.41;4921112;29;20185;-82
2022/06/11 03:33:05;;;;;;;4.13;1.83;;;;;;;14.10;71.52;96218.81;4921559;29;20199;-82
2022/06/11 03:35:32;;;;;;;3.23;1.87;;;;;;;14.07;71.84;96224.34;4920276;29;20178;-81
2022/06/11 03:37:57;;;;;;;5.77;2.20;;;;;;;14.15;71.67;96227.03;4919565;29;20238;-81
2022/06/11 03:40:23;;;;;;;3.40;2.10;;;;;;;14.24;71.50;96222.66;4920228;29;20198;-81
2022/06/11 03:42:49;;;;;;;3.23;1.80;;;;;;;14.28;71.10;96229.22;4903374;29;20195;-82
2022/06/11 03:45:15;;;;;;;3.63;2.10;;;;;;;14.22;71.26;96225.41;4921137;29;20214;-82
2022/06/11 03:47:40;;;;;;;4.80;2.17;;;;;;;14.25;71.29;96232.97;4922392;29;20356;-82
2022/06/11 03:50:09;;;;;;;4.50;2.20;;;;;;;14.53;70.62;96227.59;4922245;29;20175;-83
2022/06/11 03:52:34;;;;;;;2.27;1.97;;;;;;;15.38;67.46;96231.84;4905894;29;20183;-83
2022/06/11 03:55:00;;;;;;;3.03;1.93;;;;;;;16.52;63.28;96228.41;4920424;29;20268;-83
2022/06/11 03:57:26;;;;;;;4.93;1.87;;;;;;;17.06;59.61;96234.66;4921627;29;20226;-82
2022/06/11 03:59:52;;;;;;;4.40;1.67;;;;;;;18.71;55.63;96241.97;4921127;29;20181;-82
2022/06/11 04:02:17;;;;;;;3.35;2.00;;;;;;;18.88;53.66;96237.34;4921257;29;20187;-83
2022/06/11 04:04:42;;;;;;;4.50;2.03;;;;;;;19.01;52.39;96249.88;4904825;29;20187;-82
2022/06/11 04:07:08;;;;;;;3.60;1.58;;;;;;;19.60;50.57;96247.16;4920660;29;20216;-83
2022/06/11 04:09:37;;;;;;;4.50;1.90;;;;;;;19.61;49.72;96249.59;4920676;29;20413;-83
2022/06/11 04:12:04;;;;;;;2.45;1.52;;;;;;;20.35;48.54;96252.72;4920012;29;20266;-83
2022/06/11 04:14:30;;;;;;;3.55;1.80;;;;;;;20.57;47.72;96253.50;4919188;29;20198;-82
2022/06/11 04:16:59;;;;;;;4.63;2.30;;;;;;;20.99;45.31;96256.19;4919963;29;20202;-83
2022/06/11 04:19:29;;;;;;;2.75;1.50;;;;;;;21.68;44.24;96264.03;4919141;29;20577;-80
2022/06/11 04:21:55;;;;;;;3.85;1.60;;;;;;;23.01;42.37;96259.63;4923236;29;20183;-81
2022/06/11 04:24:21;;;;;;;2.13;1.58;;;;;;;22.14;42.50;96265.97;4929364;29;20182;-81
2022/06/11 04:26:48;;;;;;;5.47;1.60;;;;;;;22.43;42.55;96268.19;4928273;29;20202;-81
2022/06/11 04:29:16;;;;;;;2.80;1.65;;;;;;;23.24;40.33;96264.44;4929105;29;20559;-82
2022/06/11 04:31:42;;;;;;;3.58;1.63;;;;;;;23.73;39.30;96264.63;4927929;29;20187;-82
2022/06/11 04:34:08;;;;;;;3.15;1.70;;;;;;;24.09;38.76;96268.50;4910690;29;20183;-82
2022/06/11 04:36:34;;;;;;;3.83;1.58;;;;;;;24.37;37.84;96264.66;4927612;29;20225;-82
2022/06/11 04:39:00;;;;;;;6.22;1.77;;;;;;;24.57;36.98;96274.09;4913960;29;20203;-82
2022/06/11 04:41:26;;;;;;;5.70;1.95;;;;;;;25.43;36.44;96273.22;4930363;29;20205;-82
2022/06/11 04:43:52;;;;;;;3.50;1.60;;;;;;;26.07;34.57;96278.97;4928955;29;20234;-81
2022/06/11 04:46:18;;;;;;;3.95;1.65;;;;;;;25.92;33.80;96274.03;4913817;29;20526;-81
2022/06/11 04:48:43;;;;;;;4.05;1.60;;;;;;;26.48;33.54;96283.47;4929034;29;20217;-81
2022/06/11 04:51:10;;;;;;;3.58;1.70;;;;;;;27.20;32.89;96275.25;4913308;29;20214;-82
2022/06/11 04:53:35;;;;;;;4.15;1.52;;;;;;;26.31;32.86;96281.66;4928898;29;20210;-82
2022/06/11 04:56:01;;;;;;;2.15;1.40;;;;;;;26.86;32.37;96284.06;4928574;29;20198;-81
2022/06/11 04:58:26;;;;;;;4.03;1.67;;;;;;;27.25;32.51;96278.03;4928580;29;20690;-82
2022/06/11 05:00:52;;;;;;;3.10;1.40;;;;;;;27.66;31.10;96292.25;4913132;29;20262;-82
2022/06/11 05:03:17;;;;;;;2.50;1.33;;;;;;;28.49;30.61;96293.47;4926843;29;20190;-79
2022/06/11 05:05:43;;;;;;;3.10;1.52;;;;;;;28.44;30.32;96290.72;4925163;29;20178;-80
2022/06/11 05:08:11;;;;;;;3.63;1.88;;;;;;;28.41;29.81;96296.56;4925908;29;20201;-80
2022/06/11 05:10:36;;;;;;;3.40;1.70;;;;;;;28.32;30.48;96304.16;4930376;29;20196;-80
2022/06/11 05:13:04;;;;;;;3.20;1.50;;;;;;;29.21;29.66;96298.06;4913451;29;20669;-79
2022/06/11 05:15:30;;;;;;;3.28;1.60;;;;;;;29.33;28.68;96307.59;4935680;29;20198;-78
2022/06/11 05:17:56;;;;;;;2.67;1.75;;;;;;;29.46;29.17;96301.06;4951923;29;20201;-79
2022/06/11 05:20:21;;;;;;;3.35;1.70;;;;;;;28.42;29.97;96307.00;4969061;29;20247;-80
2022/06/11 05:22:48;;;;;;;4.25;1.50;;;;;;;29.30;28.42;96304.59;4953200;28;20216;-81
2022/06/11 05:25:15;;;;;;;3.40;1.48;;;;;;;28.60;31.44;96307.81;4953867;29;20212;-80
2022/06/11 05:27:42;;;;;;;3.25;1.65;;;;;;;30.77;27.94;96318.81;4954137;28;20880;-79
2022/06/11 05:30:09;;;;;;;4.45;1.80;;;;;;;29.14;29.27;96311.59;4931749;29;20181;-82
2022/06/11 05:32:37;;;;;;;3.65;1.88;;;;;;;28.43;30.20;96308.59;4963228;28;20256;-81
2022/06/11 05:35:05;;;;;;;3.20;1.60;;;;;;;29.41;29.34;96310.88;4944651;29;20185;-81
2022/06/11 05:37:31;;;;;;;3.92;1.83;;;;;;;29.70;28.80;96308.88;4931652;28;20283;-79
2022/06/11 05:39:56;;;;;;;3.35;1.45;;;;;;;29.49;28.58;96313.97;4949592;29;20201;-80
2022/06/11 05:42:23;;;;;;;5.20;1.70;;;;;;;30.18;27.65;96316.13;4931198;29;20196;-79
2022/06/11 05:44:49;;;;;;;2.38;1.60;;;;;;;29.43;28.35;96314.16;4947892;29;20177;-79
2022/06/11 05:47:17;;;;;;;4.30;1.75;;;;;;;30.76;25.53;96329.81;4930137;28;20188;-80
2022/06/11 05:49:45;;;;;;;2.58;1.60;;;;;;;31.61;25.01;96323.34;4930081;29;20198;-80
2022/06/11 05:52:17;;;;;;;4.43;1.77;;;;;;;29.77;27.57;96315.66;4948097;29;20201;-79
2022/06/11 05:54:43;;;;;;;4.80;1.75;;;;;;;29.77;27.45;96320.19;4931186;29;20184;-80
2022/06/11 05:57:12;;;;;;;3.90;1.83;;;;;;;29.74;27.21;96323.38;4931879;29;20205;-80
2022/06/11 05:59:43;;;;;;;2.53;1.88;;;;;;;28.95;28.59;96319.09;4947616;29;20197;-80
2022/06/11 06:02:10;;;;;;;5.38;2.25;;;;;;;30.09;26.66;96320.31;4947799;29;20185;-79
2022/06/11 06:04:37;;;;;;;6.05;1.80;;;;;;;29.87;27.28;96323.00;4946627;29;20192;-79
2022/06/11 06:07:03;;;;;;;3.72;1.90;;;;;;;30.25;27.18;96314.06;4946911;29;20208;-79
2022/06/11 06:09:28;;;;;;;4.88;2.00;;;;;;;30.45;26.17;96318.78;4930611;29;20568;-80
2022/06/11 06:11:53;;;;;;;5.20;1.77;;;;;;;30.01;26.35;96323.41;4947868;29;20216;-79
2022/06/11 06:14:19;;;;;;;5.85;2.30;;;;;;;31.38;24.55;96329.97;4930108;29;20187;-79
2022/06/11 06:16:44;;;;;;;4.30;2.05;;;;;;;30.86;24.88;96321.84;4947515;29;20661;-79
2022/06/11 06:19:09;;;;;;;3.70;1.95;;;;;;;31.06;24.52;96326.53;4964735;28;20227;-80
2022/06/11 06:21:37;;;;;;;4.07;1.63;;;;;;;30.48;25.82;96329.00;4931262;29;20188;-80
2022/06/11 06:24:03;;;;;;;5.55;2.10;;;;;;;29.59;26.99;96330.16;4930144;29;20249;-79
2022/06/11 06:26:29;;;;;;;3.38;1.70;;;;;;;30.51;26.26;96331.16;4930868;29;20201;-80
2022/06/11 06:28:54;;;;;;;3.80;1.83;;;;;;;30.85;25.31;96337.13;4946791;29;20697;-79
2022/06/11 06:31:20;;;;;;;3.90;2.03;;;;;;;31.23;24.05;96340.63;4930253;29;20181;-79
2022/06/11 06:33:46;;;;;;;4.18;1.65;;;;;;;31.17;25.13;96350.47;4928733;29;20206;-80
2022/06/11 06:36:11;;;;;;;4.38;1.50;;;;;;;30.25;25.24;96343.53;4945512;29;20201;-79
2022/06/11 06:38:38;;;;;;;2.80;1.58;;;;;;;29.86;26.23;96340.09;4944932;29;20332;-80
2022/06/11 06:41:03;;;;;;;3.30;1.42;;;;;;;30.78;24.00;96347.25;4928812;29;20197;-80
2022/06/11 06:43:29;;;;;;;2.33;1.33;;;;;;;30.06;25.56;96339.53;4928881;29;20673;-80
2022/06/11 06:45:54;;;;;;;2.95;1.65;;;;;;;30.57;24.48;96348.09;4944377;29;20187;-80
2022/06/11 06:48:19;;;;;;;4.70;1.50;;;;;;;31.64;23.16;96348.91;4927841;29;20220;-80
2022/06/11 06:50:45;;;;;;;4.57;1.38;;;;;;;30.48;24.72;96345.09;4944626;29;20177;-80
2022/06/11 06:53:10;;;;;;;6.30;1.60;;;;;;;30.25;25.11;96348.06;4927870;29;20177;-80
2022/06/11 06:55:35;;;;;;;5.88;1.60;;;;;;;29.69;25.95;96348.22;4943629;29;20182;-80
2022/06/11 06:58:01;;;;;;;4.45;1.45;;;;;;;30.29;25.25;96349.16;4928165;29;20599;-80
2022/06/11 07:00:27;;;;;;;3.22;1.52;;;;;;;31.21;23.72;96343.56;4928547;29;20244;-80
2022/06/11 07:02:53;;;;;;;4.35;1.70;;;;;;;30.16;25.05;96350.38;4943769;28;20184;-80
2022/06/11 07:05:19;;;;;;;3.35;1.50;;;;;;;30.62;24.71;96348.16;4960820;29;20765;-80
2022/06/11 07:07:47;;;;;;;3.28;1.50;;;;;;;29.82;26.73;96344.34;4943740;28;20308;-80
2022/06/11 07:10:13;;;;;;;4.38;1.52;;;;;;;30.59;24.96;96343.31;4928628;29;20201;-79
2022/06/11 07:12:38;;;;;;;3.67;1.40;;;;;;;29.77;25.88;96346.94;4943786;29;20625;-79
2022/06/11 07:15:04;;;;;;;3.97;1.45;;;;;;;31.02;23.35;96347.69;4942949;29;20177;-79
2022/06/11 07:17:33;;;;;;;4.40;1.58;;;;;;;30.21;25.54;96346.94;4943527;28;20201;-79
2022/06/11 07:20:02;;;;;;;4.20;1.77;;;;;;;30.04;25.81;96345.16;4927569;29;20183;-80
2022/06/11 07:22:36;;;;;;;4.18;1.50;;;;;;;30.41;25.77;96344.47;4942752;29;20179;-79
2022/06/11 07:25:03;;;;;;;6.97;1.55;;;;;;;30.29;25.68;96346.50;4926545;29;20180;-81
2022/06/11 07:27:31;;;;;;;2.72;1.60;;;;;;;29.51;26.25;96346.66;4944589;28;20177;-80
2022/06/11 07:30:10;;;;;;;3.22;1.80;;;;;;;29.10;27.41;96339.09;4930473;29;20272;-81
2022/06/11 07:32:37;;;;;;;3.53;1.90;;;;;;;29.95;26.06;96341.31;4943409;29;20197;-81
2022/06/11 07:35:03;;;;;;;5.22;2.53;;;;;;;29.83;26.44;96341.41;4950380;29;20157;-81
2022/06/11 07:37:29;;;;;;;7.97;2.45;;;;;;;28.96;27.72;96333.25;4962379;28;20195;-78
2022/06/11 07:39:57;;;;;;;3.95;2.33;;;;;;;29.10;27.95;96342.56;4946705;28;20205;-79
2022/06/11 07:42:22;;;;;;;5.57;1.85;;;;;;;28.15;28.67;96340.66;4946792;29;20173;-81
2022/06/11 07:44:48;;;;;;;4.03;1.58;;;;;;;27.88;28.96;96340.41;4945879;28;20197;-81
2022/06/11 07:47:13;;;;;;;2.60;1.30;;;;;;;28.08;28.47;96340.00;4941925;29;20272;-81
2022/06/11 07:49:38;;;;;;;2.80;1.50;;;;;;;28.26;28.60;96339.78;4931195;29;20205;-81
2022/06/11 07:52:05;;;;;;;3.17;1.48;;;;;;;28.09;28.46;96345.09;4929451;29;20239;-81
2022/06/11 07:54:33;;;;;;;3.55;1.40;;;;;;;26.60;31.45;96347.44;4930815;29;20181;-82
2022/06/11 07:56:58;;;;;;;4.32;1.55;;;;;;;27.03;29.48;96339.16;4946974;29;20185;-82
2022/06/11 07:59:23;;;;;;;5.13;1.63;;;;;;;26.84;29.86;96348.25;4928882;29;20233;-81
2022/06/11 08:01:49;;;;;;;4.15;1.55;;;;;;;26.63;31.03;96349.63;4942727;29;20633;-83
2022/06/11 08:04:14;;;;;;;6.10;1.58;;;;;;;26.78;30.33;96347.34;4942657;29;20191;-82
2022/06/11 08:06:42;;;;;;;5.88;1.50;;;;;;;28.43;29.82;96343.34;4927658;29;20574;-83
2022/06/11 08:09:07;;;;;;;2.65;1.73;;;;;;;28.49;27.84;96342.38;4939016;28;20314;-81
2022/06/11 08:11:32;;;;;;;2.20;1.67;;;;;;;27.98;28.44;96342.47;4941849;29;20177;-82
2022/06/11 08:13:58;;;;;;;5.03;2.03;;;;;;;27.87;28.86;96342.28;4927982;29;20183;-80
2022/06/11 08:16:23;;;;;;;3.83;2.00;;;;;;;27.22;29.84;96342.50;4949403;29;20184;-82
2022/06/11 08:18:48;;;;;;;4.55;1.75;;;;;;;27.29;29.14;96340.50;4933594;28;20212;-81
2022/06/11 08:21:14;;;;;;;6.78;1.60;;;;;;;27.51;28.88;96339.91;4935011;29;20184;-82
2022/06/11 08:23:41;;;;;;;5.03;1.67;;;;;;;27.31;29.18;96343.78;4950827;29;20181;-81
2022/06/11 08:26:07;;;;;;;4.88;1.58;;;;;;;27.51;29.37;96340.72;4932545;29;20178;-81
2022/06/11 08:28:32;;;;;;;3.03;1.48;;;;;;;27.00;30.01;96349.41;4932640;29;20634;-81
2022/06/11 08:30:57;;;;;;;4.55;1.58;;;;;;;27.15;29.31;96352.47;4932009;29;20187;-81
2022/06/11 08:33:23;;;;;;;5.80;2.03;;;;;;;24.47;33.99;96350.75;4929353;28;20193;-80
2022/06/11 08:35:48;;;;;;;4.25;1.73;;;;;;;25.89;32.65;96353.53;4911273;29;20193;-80
2022/06/11 08:38:13;;;;;;;3.45;1.48;;;;;;;26.04;31.46;96350.44;4889967;29;20214;-80
2022/06/11 08:40:50;;;;;;;3.08;1.63;;;;;;;26.09;31.37;96351.41;4926888;29;20183;-81
2022/06/11 08:43:22;;;;;;;3.83;1.60;;;;;;;25.63;30.91;96347.47;4895379;29;20182;-82
2022/06/11 08:46:11;;;;;;;4.15;1.95;;;;;;;24.49;32.43;96348.69;4914216;29;20202;-81
2022/06/11 08:48:46;;;;;;;5.25;1.88;;;;;;;24.25;33.89;96352.91;4914071;29;20210;-82
2022/06/11 08:51:27;;;;;;;4.65;1.67;;;;;;;23.84;33.59;96345.38;4914979;29;20179;-80
2022/06/11 08:53:55;;;;;;;3.33;1.67;;;;;;;24.24;34.13;96343.31;4913525;29;20254;-83
2022/06/11 08:56:35;;;;;;;3.65;1.83;;;;;;;23.90;34.87;96351.66;4898839;29;20186;-81
2022/06/11 08:59:09;;;;;;;4.38;2.05;;;;;;;23.34;36.06;96339.81;4914353;29;20198;-80
2022/06/11 09:01:57;;;;;;;3.88;1.73;;;;;;;24.58;34.93;96346.59;4930181;29;20580;-80
2022/06/11 09:04:34;;;;;;;4.63;1.88;;;;;;;25.22;33.28;96342.78;4896119;29;20206;-81
2022/06/11 09:07:10;;;;;;;5.32;1.90;;;;;;;25.03;33.14;96338.47;4910340;29;20214;-82
2022/06/11 09:09:59;;;;;;;3.15;1.65;;;;;;;24.90;34.83;96338.56;4895455;29;20589;-79
2022/06/11 09:13:13;;;;;;;3.28;1.80;;;;;;;25.34;33.27;96337.53;4928083;29;20534;-81
2022/06/11 09:16:08;;;;;;;3.55;1.70;;;;;;;25.38;32.57;96326.25;4895326;29;20190;-82
2022/06/11 09:18:58;;;;;;;4.70;1.80;;;;;;;24.86;34.24;96330.22;4919814;29;20305;-81
2022/06/11 09:21:43;;;;;;;5.32;1.92;;;;;;;24.50;34.50;96321.13;4913046;29;20189;-81
2022/06/11 09:24:47;;;;;;;3.42;2.05;;;;;;;24.95;34.48;96325.44;4916038;29;20178;-81
2022/06/11 09:27:26;;;;;;;3.78;1.77;;;;;;;24.72;36.09;96326.03;4917301;29;20285;-81
2022/06/11 09:30:02;;;;;;;2.65;1.70;;;;;;;24.22;37.20;96328.66;4951045;29;20225;-80
2022/06/11 09:32:44;;;;;;;6.78;2.13;;;;;;;24.29;35.59;96332.88;4950164;29;20217;-81
2022/06/11 09:35:19;;;;;;;8.10;2.03;;;;;;;24.94;35.22;96324.63;4930954;29;20174;-81
2022/06/11 09:37:48;;;;;;;2.58;1.60;;;;;;;25.55;34.47;96331.78;4929707;29;20213;-81
2022/06/11 09:40:31;;;;;;;4.30;1.90;;;;;;;25.49;34.03;96330.00;4947429;29;20193;-80
2022/06/11 09:43:26;;;;;;;4.18;1.85;;;;;;;24.92;35.24;96334.66;4947553;29;20178;-80
2022/06/11 09:46:13;;;;;;;3.75;1.90;;;;;;;25.13;34.84;96325.50;4930816;29;20178;-81
2022/06/11 09:49:01;;;;;;;4.25;1.67;;;;;;;25.15;35.70;96328.75;4947576;29;20194;-80
2022/06/11 09:51:42;;;;;;;5.55;2.08;;;;;;;25.30;34.73;96323.88;4929506;29;20658;-81
2022/06/11 09:54:45;;;;;;;5.18;1.75;;;;;;;24.46;36.30;96321.75;4946653;29;20181;-80
2022/06/11 09:57:27;;;;;;;4.30;1.50;;;;;;;24.70;37.43;96323.59;4948311;29;20192;-81
2022/06/11 10:00:03;;;;;;;5.20;1.80;;;;;;;24.94;34.28;96335.25;4932245;29;20245;-80
2022/06/11 10:02:38;;;;;;;2.92;1.80;;;;;;;24.83;36.21;96322.69;4947921;29;20174;-77
2022/06/11 10:05:08;;;;;;;4.65;1.80;;;;;;;25.41;34.85;96325.81;4893500;29;20698;-80
2022/06/11 10:07:41;;;;;;;3.88;1.80;;;;;;;25.57;33.74;96320.94;4909586;29;20191;-79
2022/06/11 10:10:13;;;;;;;6.78;1.98;;;;;;;24.50;35.21;96329.09;4912519;29;20230;-79
2022/06/11 10:13:00;;;;;;;3.33;1.63;;;;;;;24.17;36.44;96328.47;4897614;29;20189;-79
2022/06/11 10:15:32;;;;;;;4.72;1.73;;;;;;;24.47;35.50;96334.84;4914112;29;20187;-80
2022/06/11 10:18:00;;;;;;;4.38;1.70;;;;;;;24.76;35.42;96333.38;4897329;29;20270;-80
2022/06/11 10:20:38;;;;;;;3.78;1.52;;;;;;;25.27;34.61;96334.16;4930451;29;20660;-79
2022/06/11 10:23:34;;;;;;;5.05;1.70;;;;;;;25.31;34.52;96335.34;4917871;29;20222;-80
2022/06/11 10:26:25;;;;;;;4.78;1.70;;;;;;;25.96;34.88;96341.72;4897229;29;20307;-81
2022/06/11 10:29:28;;;;;;;2.53;1.60;;;;;;;25.09;34.79;96332.28;4898655;29;20360;-82
2022/06/11 10:32:00;;;;;;;3.38;1.80;;;;;;;25.14;35.87;96330.59;4913459;29;20194;-80
2022/06/11 10:34:28;;;;;;;5.10;2.00;;;;;;;25.22;34.50;96334.00;4897568;29;20179;-80
2022/06/11 10:36:57;;;;;;;2.70;1.40;;;;;;;25.00;34.54;96329.09;4899502;29;20210;-79
2022/06/11 10:39:29;;;;;;;4.97;1.80;;;;;;;24.22;36.30;96332.13;4898953;29;20206;-80
2022/06/11 10:42:09;;;;;;;3.75;1.75;;;;;;;24.13;36.10;96330.75;4898943;29;20262;-79
2022/06/11 10:44:50;;;;;;;3.72;1.75;;;;;;;24.49;36.32;96322.16;4898789;29;20210;-79
2022/06/11 10:47:20;;;;;;;2.65;1.58;;;;;;;24.83;35.18;96325.34;4914555;29;20181;-79
2022/06/11 10:49:49;;;;;;;3.83;1.70;;;;;;;25.09;35.58;96324.28;4914203;29;20195;-79
2022/06/11 10:52:37;;;;;;;3.05;1.60;;;;;;;25.22;35.42;96326.03;4914227;29;20178;-79
2022/06/11 10:55:05;;;;;;;6.47;1.92;;;;;;;25.20;36.74;96325.44;4913790;29;20174;-81
2022/06/11 10:57:31;;;;;;;4.53;2.00;;;;;;;25.42;36.33;96323.97;4914853;29;20210;-79
2022/06/11 11:00:15;;;;;;;6.68;2.20;;;;;;;25.43;36.12;96317.59;4898376;29;20186;-79
2022/06/11 11:02:50;;;;;;;3.97;1.70;;;;;;;25.97;34.37;96323.91;4898366;29;20190;-79
2022/06/11 11:05:18;;;;;;;7.47;1.73;;;;;;;26.29;35.03;96315.69;4897015;29;20190;-78
2022/06/11 11:07:57;;;;;;;4.32;1.90;;;;;;;26.68;32.45;96320.44;4929155;29;20313;-80
2022/06/11 11:10:34;;;;;;;2.40;1.90;;;;;;;26.90;33.48;96318.03;4913659;29;20186;-79
2022/06/11 11:13:02;;;;;;;3.95;2.10;;;;;;;26.95;32.42;96320.81;4931794;29;20710;-80
2022/06/11 11:15:29;;;;;;;3.92;1.70;;;;;;;27.34;31.58;96315.81;4929400;29;20693;-79
2022/06/11 11:17:59;;;;;;;3.28;1.92;;;;;;;26.90;31.50;96322.53;4926943;29;20691;-80
2022/06/11 11:20:34;;;;;;;3.70;1.98;;;;;;;27.24;32.63;96307.59;4929122;29;20194;-81
2022/06/11 11:23:05;;;;;;;4.72;1.70;;;;;;;27.20;31.45;96317.91;4916051;29;20186;-81
2022/06/11 11:25:38;;;;;;;6.43;1.88;;;;;;;26.02;34.68;96305.44;4930846;29;20177;-80
2022/06/11 11:28:05;;;;;;;3.80;1.83;;;;;;;26.94;32.03;96311.16;4915504;29;20206;-80
2022/06/11 11:30:34;;;;;;;4.75;1.90;;;;;;;26.11;33.41;96308.59;4931854;29;20214;-80
2022/06/11 11:33:22;;;;;;;3.45;1.80;;;;;;;27.03;31.82;96301.84;4913986;29;20654;-81
2022/06/11 11:35:48;;;;;;;3.63;1.73;;;;;;;25.62;35.09;96302.44;4915252;29;20208;-81
2022/06/11 11:38:17;;;;;;;4.82;2.15;;;;;;;26.46;33.40;96300.72;4915285;29;20229;-80
2022/06/11 11:41:21;;;;;;;2.55;2.00;;;;;;;26.10;34.53;96302.44;4914687;29;20201;-81
2022/06/11 11:43:47;;;;;;;4.38;1.75;;;;;;;26.97;34.45;96307.25;4858748;29;20263;-80
2022/06/11 11:46:17;;;;;;;4.63;1.80;;;;;;;27.02;32.76;96296.69;4875523;29;20279;-81
2022/06/11 11:48:48;;;;;;;2.80;1.75;;;;;;;26.98;32.70;96291.03;4861694;29;20203;-81
2022/06/11 11:51:25;;;;;;;6.75;2.17;;;;;;;27.10;31.46;96288.38;4876739;29;20188;-81